Oxford, Michigan
Current Conditions -  °F | °C
As of 10:53 AM on Sunday 21 Dec 2014 (Local Time) from KPTK Reporting Station
Overcast Overcast  
Wind Chill: 22°   Ceiling: 6000
Heat Index: 30°   Visibility: 9mi
Dew Point: 22°   Wind: 8mph
Humidity: 72%   Direction: 150°SSE
Pressure: 30.28"   Gusts: NA
Location:  42.82°N, 83.25°W
Report Text: KPTK 211553Z 15007KT 9SM OVC060 M01/M06 A3028 RMK AO2 SLP266 T10111056
Loading
Personal Weather Stations






























Interactive Weather Map New forecast layout! Learn more

10-Day Weather Forecast

Advertisements
Track Severe Weather on mobile